Thursday, May 24, 2018, 9:45 AM GMT
Back to Local

CWSS, St. Stephen, N. B.

Location: , , Canada Lat: 45.217
Local Time: 9:45 AM GMT ( 9:45 GMT) Lon: -67.25
Time Zone: GMT Elev: 85 ft

Show me the last for .
Show Coded

Time T Td Feel RH Dir Speed Gust Alt SLP Vis Weather Sky Remarks
2018-05-24 09:00 33 32 - 93 260° 1 - - 30.05 0 None
2018-05-24 08:00 34 33 - 96 300° 1 - - 30.03 0 None
2018-05-24 07:00 33 32 - 93 - Calm - - 30.02 0 None
2018-05-24 06:00 34 33 - 96 360° 1 - - 30.01 0 None
2018-05-24 05:00 35 33 - 95 10° 1 - - 30.02 0 None
2018-05-24 04:00 36 34 - 95 - Calm - - 30.01 0 None
2018-05-24 03:00 38 36 - 91 - Calm - - 30.02 0 None
2018-05-24 02:00 42 38 40 86 40° 3 - - 30.02 0 None
2018-05-24 01:00 44 39 41 82 10° 6 - - 30.01 0 None
2018-05-24 00:00 46 42 39 84 360° 12 18 - 29.97 0 None
2018-05-23 23:00 51 45 - 80 40° 9 - - 29.93 0 None
2018-05-23 22:00 54 47 - 78 30° 7 - - 29.89 0 None
2018-05-23 21:00 55 49 - 79 30° 7 - - 29.88 0 None
2018-05-23 20:00 54 48 - 80 340° 3 - - 29.85 0 None
2018-05-23 19:00 55 48 - 77 20° 9 - - 29.83 0 Peak wind: 21 mph (19 kts) from 330° at 13 min
1-hr Precip Total: 0.01"
2018-05-23 18:00 56 49 - 78 360° 13 24 - 29.83 0 Peak wind: 28 mph (25 kts) from 350° at 15 min
1-hr Precip Total: 0.05"
2018-05-23 17:00 69 53 - 57 260° 9 - - 29.77 0 None
2018-05-23 16:00 68 53 - 59 250° 7 - - 29.77 0 None
2018-05-23 15:00 65 52 - 62 260° 5 - - 29.79 0 None
2018-05-23 14:00 62 49 - 61 240° 6 - - 29.81 0 None
2018-05-23 13:00 58 52 - 79 220° 5 - - 29.82 0 None
2018-05-23 12:00 55 49 - 80 180° 5 - - 29.83 0 None
2018-05-23 11:00 53 50 - 88 - Calm - - 29.83 0 None
2018-05-23 10:00 51 50 - 94 140° 2 - - 29.83 0 None

Support USWX by starting your Amazon purchase here.